createdAt,value
2018-01-26T00:00:07.431Z,6.40
2018-01-26T00:02:35.787Z,6.10
2018-01-26T00:05:04.193Z,5.70
2018-01-26T00:07:32.424Z,6.10
2018-01-26T00:10:00.671Z,5.90
2018-01-26T00:12:28.956Z,6.30
2018-01-26T00:14:57.197Z,6.50
2018-01-26T00:17:26.265Z,6.10
2018-01-26T00:19:54.566Z,6.10
2018-01-26T00:22:22.820Z,5.90
2018-01-26T00:24:51.061Z,5.90
2018-01-26T00:27:19.373Z,6.10
2018-01-26T00:29:47.741Z,6.30
2018-01-26T00:32:15.976Z,6.40
2018-01-26T00:34:44.239Z,6.40
2018-01-26T00:37:12.491Z,6.40
2018-01-26T00:39:40.877Z,6.40
2018-01-26T00:42:09.106Z,6.50
2018-01-26T00:44:37.382Z,6.40
2018-01-26T00:47:05.749Z,6.40
2018-01-26T00:49:34.821Z,6.00
2018-01-26T00:52:03.069Z,6.00
2018-01-26T00:54:32.098Z,6.00
2018-01-26T00:57:00.331Z,6.00
2018-01-26T00:59:28.613Z,6.40
2018-01-26T01:01:56.834Z,6.30
2018-01-26T01:04:25.068Z,6.30
2018-01-26T01:06:53.348Z,6.20
2018-01-26T01:09:21.585Z,6.10
2018-01-26T01:11:49.836Z,5.90
2018-01-26T01:14:18.277Z,6.10
2018-01-26T01:16:46.543Z,6.10
2018-01-26T01:19:14.775Z,5.90
2018-01-26T01:21:43.071Z,6.10
2018-01-26T01:24:11.302Z,6.10
2018-01-26T01:26:39.548Z,6.30
2018-01-26T01:29:07.850Z,5.80
2018-01-26T01:31:36.877Z,6.00
2018-01-26T01:34:05.878Z,6.00
2018-01-26T01:36:34.111Z,6.00
2018-01-26T01:39:02.428Z,6.10
2018-01-26T01:41:30.662Z,5.90
2018-01-26T01:43:58.944Z,5.80
2018-01-26T01:46:27.212Z,6.10
2018-01-26T01:49:14.001Z,6.00
2018-01-26T01:51:43.057Z,5.80
2018-01-26T01:54:11.283Z,5.80
2018-01-26T01:56:40.280Z,6.20
2018-01-26T01:59:09.405Z,5.70
2018-01-26T02:01:37.649Z,5.70
2018-01-26T02:04:06.756Z,5.70
2018-01-26T02:06:35.031Z,5.60
2018-01-26T02:09:03.276Z,5.20
2018-01-26T02:11:31.593Z,5.30
2018-01-26T02:13:59.890Z,5.00
2018-01-26T02:16:28.109Z,4.80
2018-01-26T02:18:56.407Z,5.70
2018-01-26T02:21:24.662Z,5.70
2018-01-26T02:23:52.914Z,5.90
2018-01-26T02:26:21.217Z,5.80
2018-01-26T02:28:49.521Z,5.30
2018-01-26T02:31:17.783Z,4.90
2018-01-26T02:33:46.072Z,4.50
2018-01-26T02:36:14.301Z,5.20
2018-01-26T02:38:42.597Z,5.20
2018-01-26T02:41:11.736Z,4.80
2018-01-26T02:43:39.997Z,4.80
2018-01-26T02:46:08.246Z,4.60
2018-01-26T02:48:37.283Z,4.60
2018-01-26T02:51:05.525Z,4.60
2018-01-26T02:53:33.811Z,5.30
2018-01-26T02:56:02.066Z,5.20
2018-01-26T02:58:31.062Z,5.30
2018-01-26T03:01:00.241Z,5.40
2018-01-26T03:03:28.482Z,5.40
2018-01-26T03:05:56.734Z,5.50
2018-01-26T03:08:25.012Z,5.40
2018-01-26T03:10:53.284Z,5.20
2018-01-26T03:13:21.550Z,5.40
2018-01-26T03:15:49.813Z,5.30
2018-01-26T03:18:18.122Z,5.40
2018-01-26T03:20:46.385Z,5.20
2018-01-26T03:23:14.635Z,5.20
2018-01-26T03:25:43.718Z,5.40
2018-01-26T03:28:11.951Z,5.40
2018-01-26T03:30:40.179Z,5.50
2018-01-26T03:33:09.212Z,5.50
2018-01-26T03:35:37.445Z,5.50
2018-01-26T03:38:06.542Z,5.30
2018-01-26T03:40:34.818Z,5.20
2018-01-26T03:43:03.815Z,5.20
2018-01-26T03:45:32.870Z,5.40
2018-01-26T03:48:01.111Z,5.40
2018-01-26T03:50:29.338Z,5.20
2018-01-26T03:52:57.625Z,5.10
2018-01-26T03:55:25.871Z,5.10
2018-01-26T03:57:54.139Z,5.10
2018-01-26T04:00:22.355Z,5.10
2018-01-26T04:02:51.353Z,4.80
2018-01-26T04:05:19.617Z,4.70
2018-01-26T04:07:47.845Z,4.70
2018-01-26T04:10:16.222Z,4.70
2018-01-26T04:12:44.467Z,4.60
2018-01-26T04:15:12.775Z,4.80
2018-01-26T04:17:41.035Z,5.10
2018-01-26T04:20:09.317Z,5.30
2018-01-26T04:22:37.705Z,5.10
2018-01-26T04:25:05.965Z,4.80
2018-01-26T04:27:34.214Z,4.40
2018-01-26T04:30:02.550Z,4.30
2018-01-26T04:32:30.831Z,4.80
2018-01-26T04:34:59.168Z,5.20
2018-01-26T04:37:27.502Z,5.30
2018-01-26T04:39:55.750Z,5.30
2018-01-26T04:42:24.004Z,5.20
2018-01-26T04:44:52.299Z,5.60
2018-01-26T04:47:24.081Z,5.50
2018-01-26T04:49:52.332Z,5.20
2018-01-26T04:52:20.571Z,5.40
2018-01-26T04:54:48.882Z,5.30
2018-01-26T04:57:17.106Z,5.30
2018-01-26T04:59:46.107Z,5.60
2018-01-26T05:02:15.137Z,5.30
2018-01-26T05:04:43.392Z,5.30
2018-01-26T05:07:11.634Z,5.20
2018-01-26T05:09:39.958Z,5.10
2018-01-26T05:12:08.199Z,5.40
2018-01-26T05:14:37.181Z,5.60
2018-01-26T05:17:06.310Z,5.00
2018-01-26T05:19:34.559Z,5.00
2018-01-26T05:22:03.568Z,5.20
2018-01-26T05:24:31.877Z,5.20
2018-01-26T05:27:00.125Z,5.50
2018-01-26T05:29:28.386Z,5.40
2018-01-26T05:31:56.649Z,5.60
2018-01-26T05:34:24.941Z,5.60
2018-01-26T05:36:53.156Z,5.40
2018-01-26T05:39:21.402Z,5.50
2018-01-26T05:41:49.667Z,5.60
2018-01-26T05:44:18.658Z,5.60
2018-01-26T05:46:46.908Z,5.60
2018-01-26T05:49:16.046Z,5.50
2018-01-26T05:51:44.334Z,5.50
2018-01-26T05:54:12.577Z,5.30
2018-01-26T05:56:40.837Z,5.10
2018-01-26T05:59:09.865Z,5.40
2018-01-26T06:01:38.157Z,5.40
2018-01-26T06:04:06.435Z,5.20
2018-01-26T06:06:34.737Z,5.10
2018-01-26T06:09:02.999Z,5.10
2018-01-26T06:11:31.238Z,5.30
2018-01-26T06:13:59.481Z,5.40
2018-01-26T06:16:28.553Z,5.00
2018-01-26T06:18:56.820Z,4.90
2018-01-26T06:21:25.102Z,5.40
2018-01-26T06:23:53.375Z,5.50
2018-01-26T06:26:21.634Z,5.60
2018-01-26T06:28:49.882Z,5.60
2018-01-26T06:31:18.202Z,5.60
2018-01-26T06:33:46.509Z,5.40
2018-01-26T06:36:14.820Z,5.30
2018-01-26T06:38:43.093Z,5.10
2018-01-26T06:41:11.335Z,5.20
2018-01-26T06:43:40.349Z,5.40
2018-01-26T06:46:08.802Z,5.40
2018-01-26T06:48:37.059Z,5.30
2018-01-26T06:51:05.346Z,5.50
2018-01-26T06:53:33.632Z,5.40
2018-01-26T06:56:01.898Z,4.50
2018-01-26T06:58:30.136Z,4.70
2018-01-26T07:00:58.458Z,5.10
2018-01-26T07:03:26.709Z,4.70
2018-01-26T07:05:54.981Z,5.10
2018-01-26T07:08:23.348Z,5.50
2018-01-26T07:10:51.652Z,5.70
2018-01-26T07:13:19.909Z,5.50
2018-01-26T07:15:48.190Z,5.40
2018-01-26T07:18:16.459Z,5.00
2018-01-26T07:20:44.738Z,5.50
2018-01-26T07:23:13.185Z,5.50
2018-01-26T07:25:41.528Z,5.50
2018-01-26T07:28:09.836Z,5.30
2018-01-26T07:30:38.118Z,5.50
2018-01-26T07:33:06.398Z,5.40
2018-01-26T07:35:34.642Z,5.20
2018-01-26T07:38:03.762Z,5.50
2018-01-26T07:40:32.012Z,5.40
2018-01-26T07:43:01.052Z,5.40
2018-01-26T07:45:29.333Z,5.40
2018-01-26T07:47:57.618Z,5.30
2018-01-26T07:50:25.869Z,5.40
2018-01-26T07:52:54.279Z,5.50
2018-01-26T07:55:22.539Z,5.60
2018-01-26T07:57:50.840Z,5.50
2018-01-26T08:00:19.237Z,5.20
2018-01-26T08:02:48.269Z,4.90
2018-01-26T08:05:16.576Z,5.00
2018-01-26T08:07:44.877Z,5.30
2018-01-26T08:10:13.133Z,5.40
2018-01-26T08:12:41.986Z,5.50
2018-01-26T08:15:10.594Z,5.60
2018-01-26T08:17:38.918Z,5.60
2018-01-26T08:20:07.958Z,5.40
2018-01-26T08:22:36.296Z,5.40
2018-01-26T08:25:04.542Z,5.40
2018-01-26T08:27:32.853Z,5.10
2018-01-26T08:30:01.246Z,4.80
2018-01-26T08:32:29.486Z,4.80
2018-01-26T08:34:58.513Z,5.20
2018-01-26T08:37:26.793Z,5.20
2018-01-26T08:39:55.023Z,4.80
2018-01-26T08:42:24.036Z,5.30
2018-01-26T08:44:53.080Z,5.40
2018-01-26T08:47:21.327Z,5.40
2018-01-26T08:49:49.560Z,5.50
2018-01-26T08:52:17.866Z,5.50
2018-01-26T08:54:46.100Z,5.40
2018-01-26T08:57:14.334Z,5.40
2018-01-26T08:59:42.612Z,5.50
2018-01-26T09:02:10.881Z,5.50
2018-01-26T09:04:39.165Z,5.50
2018-01-26T09:07:08.214Z,5.50
2018-01-26T09:09:37.231Z,5.50
2018-01-26T09:12:05.519Z,5.50
2018-01-26T09:14:33.797Z,5.60
2018-01-26T09:17:02.047Z,5.50
2018-01-26T09:19:30.296Z,5.60
2018-01-26T09:21:58.585Z,5.70
2018-01-26T09:24:27.601Z,5.70
2018-01-26T09:26:55.858Z,5.70
2018-01-26T09:29:24.163Z,5.70
2018-01-26T09:31:52.456Z,5.80
2018-01-26T09:34:20.697Z,5.90
2018-01-26T09:36:49.084Z,5.90
2018-01-26T09:39:17.318Z,5.90
2018-01-26T09:41:45.578Z,5.80
2018-01-26T09:44:13.876Z,5.90
2018-01-26T09:46:42.309Z,6.00
2018-01-26T09:49:11.386Z,6.00
2018-01-26T09:51:39.654Z,6.00
2018-01-26T09:54:07.932Z,6.00
2018-01-26T09:56:36.185Z,6.00
2018-01-26T09:59:05.224Z,6.00
2018-01-26T10:01:33.484Z,6.00
2018-01-26T10:04:01.734Z,6.10
2018-01-26T10:06:30.794Z,6.10
2018-01-26T10:08:59.038Z,6.10
2018-01-26T10:11:27.269Z,6.10
2018-01-26T10:13:55.541Z,6.20
2018-01-26T10:16:24.562Z,6.30
2018-01-26T10:18:52.835Z,6.30
2018-01-26T10:21:21.112Z,6.30
2018-01-26T10:23:49.353Z,6.30
2018-01-26T10:26:17.612Z,6.30
2018-01-26T10:28:45.889Z,6.40
2018-01-26T10:31:14.147Z,6.40
2018-01-26T10:33:42.390Z,6.40
2018-01-26T10:36:10.672Z,6.40
2018-01-26T10:38:38.929Z,6.50
2018-01-26T10:41:07.911Z,6.50
2018-01-26T10:43:36.977Z,6.60
2018-01-26T10:46:05.220Z,6.50
2018-01-26T10:48:33.467Z,6.60
2018-01-26T10:51:01.772Z,6.60
2018-01-26T10:53:30.012Z,6.70
2018-01-26T10:55:59.024Z,6.70
2018-01-26T10:58:27.293Z,6.70
2018-01-26T11:00:56.305Z,6.80
2018-01-26T11:03:24.554Z,6.80
2018-01-26T11:05:53.777Z,6.60
2018-01-26T11:08:22.060Z,6.60
2018-01-26T11:10:50.296Z,6.70
2018-01-26T11:13:19.358Z,6.90
2018-01-26T11:15:47.596Z,6.90
2018-01-26T11:18:15.877Z,7.00
2018-01-26T11:20:44.950Z,6.90
2018-01-26T11:23:13.172Z,6.90
2018-01-26T11:25:41.401Z,7.00
2018-01-26T11:28:09.687Z,7.00
2018-01-26T11:30:37.914Z,7.10
2018-01-26T11:33:06.141Z,7.10
2018-01-26T11:35:34.445Z,7.20
2018-01-26T11:38:02.672Z,7.20
2018-01-26T11:40:30.968Z,7.20
2018-01-26T11:42:59.245Z,7.20
2018-01-26T11:45:27.485Z,7.30
2018-01-26T11:47:56.492Z,7.40
2018-01-26T11:50:24.779Z,7.40
2018-01-26T11:52:53.027Z,7.40
2018-01-26T11:55:22.040Z,7.40
2018-01-26T11:57:50.666Z,7.40
2018-01-26T12:00:18.905Z,7.50
2018-01-26T12:02:47.158Z,7.50
2018-01-26T12:05:16.227Z,7.60
2018-01-26T12:07:44.463Z,7.50
2018-01-26T12:10:12.695Z,7.60
2018-01-26T12:12:41.028Z,7.70
2018-01-26T12:15:09.286Z,7.70
2018-01-26T12:17:37.700Z,7.70
2018-01-26T12:20:06.188Z,7.80
2018-01-26T12:22:35.271Z,7.90
2018-01-26T12:25:03.535Z,7.90
2018-01-26T12:27:31.843Z,7.90
2018-01-26T12:30:00.128Z,7.90
2018-01-26T12:32:28.406Z,7.90
2018-01-26T12:34:57.463Z,8.00
2018-01-26T12:37:25.714Z,8.00
2018-01-26T12:39:53.953Z,8.00
2018-01-26T12:42:23.027Z,8.00
2018-01-26T12:44:51.320Z,8.00
2018-01-26T12:47:19.579Z,8.00
2018-01-26T12:49:47.851Z,8.10
2018-01-26T12:52:16.089Z,8.10
2018-01-26T12:54:44.328Z,8.20
2018-01-26T12:57:13.408Z,8.30
2018-01-26T12:59:41.687Z,8.20
2018-01-26T13:02:09.933Z,8.30
2018-01-26T13:04:38.201Z,8.40
2018-01-26T13:07:06.440Z,8.60
2018-01-26T13:09:35.478Z,8.70
2018-01-26T13:12:03.769Z,8.70
2018-01-26T13:14:32.025Z,8.80
2018-01-26T13:17:00.297Z,8.80
2018-01-26T13:19:28.574Z,8.80
2018-01-26T13:21:56.802Z,8.90
2018-01-26T13:24:25.819Z,9.00
2018-01-26T13:26:54.134Z,9.00
2018-01-26T13:29:22.373Z,9.00
2018-01-26T13:31:50.674Z,9.00
2018-01-26T13:34:19.017Z,9.10
2018-01-26T13:36:47.307Z,9.10
2018-01-26T13:39:15.639Z,9.00
2018-01-26T13:41:44.681Z,8.90
2018-01-26T13:44:12.950Z,8.80
2018-01-26T13:46:41.952Z,8.80
2018-01-26T13:49:10.287Z,8.80
2018-01-26T13:51:39.308Z,8.80
2018-01-26T13:54:07.597Z,8.80
2018-01-26T13:56:35.943Z,8.80
2018-01-26T13:59:04.317Z,8.80
2018-01-26T14:01:33.392Z,8.70
2018-01-26T14:04:01.744Z,8.70
2018-01-26T14:06:29.998Z,8.60
2018-01-26T14:08:58.295Z,8.70
2018-01-26T14:11:26.643Z,8.70
2018-01-26T14:13:54.916Z,8.50
2018-01-26T14:16:23.195Z,8.50
2018-01-26T14:18:51.515Z,8.50
2018-01-26T14:21:19.751Z,8.60
2018-01-26T14:23:48.362Z,8.50
2018-01-26T14:26:16.714Z,8.50
2018-01-26T14:28:44.958Z,8.60
2018-01-26T14:31:13.297Z,8.50
2018-01-26T14:33:41.593Z,8.50
2018-01-26T14:36:10.613Z,8.60
2018-01-26T14:38:38.868Z,8.60
2018-01-26T14:41:07.909Z,8.70
2018-01-26T14:43:36.149Z,8.70
2018-01-26T14:46:05.135Z,8.70
2018-01-26T14:48:34.186Z,8.60
2018-01-26T14:51:02.483Z,8.60
2018-01-26T14:53:30.717Z,8.60
2018-01-26T14:55:59.027Z,8.60
2018-01-26T14:58:27.306Z,8.60
2018-01-26T15:00:55.550Z,8.60
2018-01-26T15:03:23.817Z,8.50
2018-01-26T15:05:52.104Z,8.40
2018-01-26T15:08:20.355Z,8.30
2018-01-26T15:10:48.616Z,8.30
2018-01-26T15:13:17.631Z,8.40
2018-01-26T15:15:45.896Z,8.40
2018-01-26T15:18:14.212Z,8.40
2018-01-26T15:20:42.463Z,8.40
2018-01-26T15:23:10.761Z,8.50
2018-01-26T15:25:39.474Z,8.50
2018-01-26T15:28:07.729Z,8.20
2018-01-26T15:30:35.990Z,8.20
2018-01-26T15:33:04.338Z,8.20
2018-01-26T15:35:33.334Z,8.40
2018-01-26T15:38:01.575Z,8.40
2018-01-26T15:40:29.898Z,8.40
2018-01-26T15:42:58.161Z,8.30
2018-01-26T15:45:26.413Z,8.30
2018-01-26T15:47:55.454Z,8.50
2018-01-26T15:50:23.692Z,8.50
2018-01-26T15:52:52.711Z,8.60
2018-01-26T15:55:20.989Z,8.60
2018-01-26T15:57:49.227Z,8.70
2018-01-26T16:00:17.462Z,8.80
2018-01-26T16:02:45.794Z,8.90
2018-01-26T16:05:14.791Z,8.40
2018-01-26T16:07:43.856Z,8.30
2018-01-26T16:10:12.146Z,8.30
2018-01-26T16:12:41.152Z,8.50
2018-01-26T16:15:09.401Z,8.50
2018-01-26T16:17:37.700Z,8.60
2018-01-26T16:20:06.695Z,8.50
2018-01-26T16:22:34.962Z,8.50
2018-01-26T16:25:03.249Z,8.80
2018-01-26T16:27:31.570Z,8.50
2018-01-26T16:29:59.917Z,8.20
2018-01-26T16:32:28.322Z,8.00
2018-01-26T16:34:56.564Z,8.00
2018-01-26T16:37:24.814Z,8.10
2018-01-26T16:39:53.862Z,7.40
2018-01-26T16:42:22.151Z,7.40
2018-01-26T16:44:50.379Z,7.00
2018-01-26T16:47:18.679Z,7.20
2018-01-26T16:49:46.928Z,7.40
2018-01-26T16:52:15.167Z,7.20
2018-01-26T16:54:44.247Z,6.80
2018-01-26T16:57:12.550Z,6.80
2018-01-26T16:59:40.827Z,6.70
2018-01-26T17:02:09.124Z,6.70
2018-01-26T17:04:37.379Z,6.90
2018-01-26T17:07:06.528Z,6.70
2018-01-26T17:09:34.793Z,6.70
2018-01-26T17:12:03.038Z,6.80
2018-01-26T17:14:31.371Z,6.80
2018-01-26T17:16:59.655Z,7.00
2018-01-26T17:19:27.992Z,7.00
2018-01-26T17:21:56.278Z,6.90
2018-01-26T17:24:24.531Z,7.10
2018-01-26T17:26:52.877Z,7.00
2018-01-26T17:29:21.165Z,7.10
2018-01-26T17:31:50.201Z,7.30
2018-01-26T17:34:18.547Z,7.30
2018-01-26T17:36:47.590Z,7.20
2018-01-26T17:39:15.828Z,7.20
2018-01-26T17:41:44.114Z,7.20
2018-01-26T17:44:12.355Z,7.50
2018-01-26T17:46:40.660Z,7.60
2018-01-26T17:49:09.010Z,7.20
2018-01-26T17:51:38.053Z,7.20
2018-01-26T17:54:06.400Z,7.20
2018-01-26T17:56:34.637Z,7.60
2018-01-26T17:59:02.890Z,7.10
2018-01-26T18:01:31.200Z,6.80
2018-01-26T18:03:59.449Z,6.60
2018-01-26T18:06:27.696Z,6.70
2018-01-26T18:08:56.095Z,6.50
2018-01-26T18:11:24.390Z,6.70
2018-01-26T18:13:52.718Z,6.60
2018-01-26T18:16:21.045Z,6.50
2018-01-26T18:18:49.349Z,6.40
2018-01-26T18:21:18.449Z,6.40
2018-01-26T18:23:46.694Z,6.30
2018-01-26T18:26:14.971Z,6.20
2018-01-26T18:28:43.307Z,6.00
2018-01-26T18:31:11.674Z,6.20
2018-01-26T18:33:39.934Z,6.20
2018-01-26T18:36:08.973Z,6.50
2018-01-26T18:38:37.305Z,6.50
2018-01-26T18:41:06.354Z,6.40
2018-01-26T18:43:34.591Z,6.40
2018-01-26T18:46:02.934Z,6.20
2018-01-26T18:48:31.245Z,6.00
2018-01-26T18:50:59.506Z,6.30
2018-01-26T18:53:28.954Z,6.50
2018-01-26T18:55:57.228Z,6.50
2018-01-26T18:58:25.505Z,6.40
2018-01-26T19:00:53.845Z,6.00
2018-01-26T19:03:22.139Z,5.90
2018-01-26T19:05:51.206Z,6.20
2018-01-26T19:08:19.462Z,6.20
2018-01-26T19:10:47.804Z,6.50
2018-01-26T19:13:16.033Z,6.10
2018-01-26T19:15:45.152Z,6.10
2018-01-26T19:18:13.445Z,6.10
2018-01-26T19:20:41.769Z,6.00
2018-01-26T19:23:10.900Z,6.30
2018-01-26T19:25:39.139Z,6.30
2018-01-26T19:28:07.365Z,6.50
2018-01-26T19:30:36.461Z,6.50
2018-01-26T19:33:04.729Z,6.40
2018-01-26T19:35:33.043Z,6.50
2018-01-26T19:38:01.328Z,6.80
2018-01-26T19:40:29.608Z,6.70
2018-01-26T19:42:57.937Z,6.30
2018-01-26T19:45:26.367Z,6.10
2018-01-26T19:47:54.901Z,6.10
2018-01-26T19:50:23.250Z,6.40
2018-01-26T19:52:52.261Z,6.80
2018-01-26T19:55:20.546Z,6.80
2018-01-26T19:57:48.945Z,6.80
2018-01-26T20:00:17.967Z,6.70
2018-01-26T20:02:46.180Z,6.70
2018-01-26T20:05:38.096Z,6.50
2018-01-26T20:08:30.686Z,6.30
2018-01-26T20:10:58.972Z,6.20
2018-01-26T20:13:27.978Z,6.20
2018-01-26T20:16:03.681Z,6.50
2018-01-26T20:18:32.417Z,6.40
2018-01-26T20:21:01.532Z,6.30
2018-01-26T20:23:29.836Z,6.10
2018-01-26T20:25:58.207Z,6.00
2018-01-26T20:28:26.476Z,5.80
2018-01-26T20:30:54.846Z,5.80
2018-01-26T20:33:23.092Z,5.60
2018-01-26T20:35:51.569Z,5.60
2018-01-26T20:38:19.903Z,5.80
2018-01-26T20:40:48.177Z,6.00
2018-01-26T20:43:16.439Z,5.90
2018-01-26T20:45:44.745Z,5.90
2018-01-26T20:48:13.041Z,6.10
2018-01-26T20:50:41.262Z,6.00
2018-01-26T20:53:09.554Z,5.90
2018-01-26T20:55:37.831Z,5.90
2018-01-26T20:58:06.123Z,5.90
2018-01-26T21:00:34.414Z,5.80
2018-01-26T21:03:02.794Z,5.80
2018-01-26T21:05:31.074Z,5.80
2018-01-26T21:08:08.793Z,6.10
2018-01-26T21:10:37.264Z,6.10
2018-01-26T21:13:05.543Z,5.70
2018-01-26T21:15:33.814Z,5.80
2018-01-26T21:18:02.578Z,5.90
2018-01-26T21:20:30.905Z,5.80
2018-01-26T21:22:59.920Z,5.60
2018-01-26T21:25:28.160Z,5.60
2018-01-26T21:27:56.422Z,5.50
2018-01-26T21:30:24.686Z,5.60
2018-01-26T21:32:52.921Z,5.60
2018-01-26T21:35:21.204Z,5.60
2018-01-26T21:37:49.502Z,5.40
2018-01-26T21:40:17.846Z,5.20
2018-01-26T21:42:46.113Z,5.20
2018-01-26T21:45:14.394Z,5.30
2018-01-26T21:47:42.673Z,5.20
2018-01-26T21:50:10.941Z,5.10
2018-01-26T21:52:39.260Z,5.30
2018-01-26T21:55:07.514Z,5.10
2018-01-26T21:57:35.797Z,5.20
2018-01-26T22:00:04.042Z,5.10
2018-01-26T22:02:32.277Z,5.10
2018-01-26T22:05:06.129Z,5.00
2018-01-26T22:07:40.177Z,4.90
2018-01-26T22:10:09.233Z,5.00
2018-01-26T22:12:37.476Z,4.80
2018-01-26T22:15:05.713Z,5.00
2018-01-26T22:17:34.004Z,5.00
2018-01-26T22:20:02.331Z,5.10
2018-01-26T22:22:31.330Z,5.10
2018-01-26T22:24:59.646Z,5.10
2018-01-26T22:27:27.883Z,5.10
2018-01-26T22:29:56.118Z,5.10
2018-01-26T22:32:25.167Z,5.10
2018-01-26T22:34:53.387Z,5.10
2018-01-26T22:37:21.629Z,5.10
2018-01-26T22:39:50.846Z,5.20
2018-01-26T22:42:19.088Z,5.20
2018-01-26T22:44:47.333Z,5.10
2018-01-26T22:47:16.378Z,5.10
2018-01-26T22:49:44.628Z,5.10
2018-01-26T22:52:12.903Z,5.10
2018-01-26T22:54:41.165Z,5.10
2018-01-26T22:57:09.410Z,5.10
2018-01-26T22:59:37.633Z,5.10
2018-01-26T23:02:05.924Z,5.20
2018-01-26T23:04:34.190Z,5.20
2018-01-26T23:07:02.454Z,5.20
2018-01-26T23:09:30.766Z,5.30
2018-01-26T23:11:59.002Z,5.30
2018-01-26T23:14:27.231Z,5.10
2018-01-26T23:16:55.510Z,5.10
2018-01-26T23:19:23.757Z,5.00
2018-01-26T23:21:51.980Z,5.10
2018-01-26T23:24:21.027Z,5.00
2018-01-26T23:26:49.311Z,5.00
2018-01-26T23:29:17.557Z,5.10
2018-01-26T23:31:45.840Z,5.20
2018-01-26T23:34:14.082Z,5.00
2018-01-26T23:36:43.073Z,5.00
2018-01-26T23:39:12.175Z,5.00
2018-01-26T23:41:40.410Z,5.00
2018-01-26T23:44:08.659Z,5.10
2018-01-26T23:46:36.942Z,5.10
2018-01-26T23:49:05.331Z,5.10
2018-01-26T23:51:33.589Z,5.10
2018-01-26T23:54:01.872Z,5.20
2018-01-26T23:56:30.104Z,5.10
2018-01-26T23:58:59.102Z,5.10
